Time;durP1;ratioP1;P1;durP2;ratioP2;P2;SDS_P1;SDS_P2;PMS_P1;PMS_P2;Temp;Humidity;BMP_temperature;BMP_pressure;BME280_temperature;BME280_humidity;BME280_pressure;Samples;Min_cycle;Max_cycle;Signal;HPM_P1;HPM_P2
2022/11/08 00:01:51;;;;;;;10.02;2.38;;;;;;;;;;5063478;28;20048;-74
2022/11/08 00:04:17;;;;;;;9.73;2.17;;;;;;;;;;5034780;28;20045;-78
2022/11/08 00:14:58;;;;;;;9.02;2.50;;;;;;;;;;5055583;28;20120;-78
2022/11/08 00:17:25;;;;;;;12.07;2.63;;;;;;;;;;5059935;28;20047;-77
2022/11/08 00:19:51;;;;;;;10.25;2.75;;;;;;;;;;5061323;28;20037;-77
2022/11/08 00:22:17;;;;;;;9.27;2.60;;;;;;;;;;5066585;28;20051;-74
2022/11/08 00:24:43;;;;;;;13.45;2.60;;;;;;;;;;5069227;28;20044;-78
2022/11/08 00:27:11;;;;;;;7.57;2.33;;;;;;;;;;5056508;28;20052;-74
2022/11/08 00:29:37;;;;;;;15.02;3.58;;;;;;;;;;5046512;28;20072;-74
2022/11/08 00:32:04;;;;;;;15.20;3.83;;;;;;;;;;5046165;28;20047;-74
2022/11/08 00:34:31;;;;;;;12.85;2.50;;;;;;;;;;5101359;28;20409;-74
2022/11/08 00:36:57;;;;;;;14.73;2.92;;;;;;;;;;5062052;28;20033;-73
2022/11/08 00:39:23;;;;;;;11.48;2.60;;;;;;;;;;5057261;28;20041;-74
2022/11/08 00:41:49;;;;;;;12.40;2.42;;;;;;;;;;5026218;28;20040;-74
2022/11/08 00:44:16;;;;;;;13.15;2.22;;;;;;;;;;5047928;28;20048;-74
2022/11/08 00:46:42;;;;;;;14.30;2.60;;;;;;;;;;5053030;28;20067;-74
2022/11/08 00:49:09;;;;;;;10.20;2.25;;;;;;;;;;5055279;28;20049;-74
2022/11/08 00:51:36;;;;;;;9.90;2.65;;;;;;;;;;5063910;28;20041;-73
2022/11/08 00:54:02;;;;;;;13.27;2.38;;;;;;;;;;5056614;28;20041;-74
2022/11/08 00:56:28;;;;;;;10.60;2.17;;;;;;;;;;5050495;28;20033;-73
2022/11/08 00:58:54;;;;;;;13.07;3.15;;;;;;;;;;5064209;28;20088;-74
2022/11/08 01:01:21;;;;;;;10.30;2.42;;;;;;;;;;5038589;28;20036;-78
2022/11/08 01:03:47;;;;;;;12.50;2.50;;;;;;;;;;5058864;28;20080;-77
2022/11/08 01:06:14;;;;;;;9.80;2.58;;;;;;;;;;5055291;28;20075;-77
2022/11/08 01:08:40;;;;;;;11.93;2.90;;;;;;;;;;5045865;28;20086;-74
2022/11/08 01:11:08;;;;;;;13.00;2.88;;;;;;;;;;5053480;28;20044;-73
2022/11/08 01:13:35;;;;;;;9.32;2.30;;;;;;;;;;5055136;28;20068;-73
2022/11/08 01:16:07;;;;;;;13.55;2.60;;;;;;;;;;5048615;28;20036;-77
2022/11/08 01:18:33;;;;;;;12.45;2.50;;;;;;;;;;5058762;28;20076;-74
2022/11/08 01:20:59;;;;;;;11.13;2.58;;;;;;;;;;5067951;28;20032;-78
2022/11/08 01:23:25;;;;;;;12.55;2.97;;;;;;;;;;5070081;28;20048;-78
2022/11/08 01:25:51;;;;;;;12.00;2.88;;;;;;;;;;5050880;28;20032;-77
2022/11/08 01:28:17;;;;;;;12.13;3.05;;;;;;;;;;5062794;28;20029;-73
2022/11/08 01:30:44;;;;;;;10.00;2.40;;;;;;;;;;5051105;28;20159;-73
2022/11/08 01:33:10;;;;;;;11.90;2.30;;;;;;;;;;5041749;28;20044;-74
2022/11/08 01:35:37;;;;;;;10.23;2.60;;;;;;;;;;5060486;28;20044;-77
2022/11/08 01:38:04;;;;;;;9.65;2.60;;;;;;;;;;5040179;28;20037;-73
2022/11/08 01:40:30;;;;;;;9.27;2.75;;;;;;;;;;5052979;28;20183;-73
2022/11/08 01:42:56;;;;;;;7.93;2.60;;;;;;;;;;5064694;28;20036;-78
2022/11/08 01:45:41;;;;;;;9.52;2.67;;;;;;;;;;5069442;28;20055;-77
2022/11/08 01:48:07;;;;;;;11.77;2.83;;;;;;;;;;5051956;28;20524;-78
2022/11/08 01:50:33;;;;;;;10.30;2.80;;;;;;;;;;5040280;28;20485;-74
2022/11/08 01:52:59;;;;;;;12.63;2.65;;;;;;;;;;5064970;28;20128;-78
2022/11/08 01:55:27;;;;;;;10.60;2.33;;;;;;;;;;5072966;28;20040;-77
2022/11/08 01:58:03;;;;;;;9.05;2.40;;;;;;;;;;5060304;28;20053;-73
2022/11/08 02:00:29;;;;;;;8.57;2.40;;;;;;;;;;5060164;28;20040;-77
2022/11/08 02:02:57;;;;;;;9.77;2.38;;;;;;;;;;5067893;28;20394;-77
2022/11/08 02:05:23;;;;;;;9.93;2.67;;;;;;;;;;5065851;28;20076;-74
2022/11/08 02:07:51;;;;;;;11.55;2.70;;;;;;;;;;5073459;28;20052;-74
2022/11/08 02:10:18;;;;;;;8.43;2.20;;;;;;;;;;5065600;28;20037;-76
2022/11/08 02:12:44;;;;;;;7.28;2.35;;;;;;;;;;5048659;28;20103;-77
2022/11/08 02:15:11;;;;;;;8.43;2.38;;;;;;;;;;5054623;28;20045;-77
2022/11/08 02:17:37;;;;;;;9.50;2.28;;;;;;;;;;5040947;28;20469;-78
2022/11/08 02:20:03;;;;;;;11.60;2.33;;;;;;;;;;5047572;28;20040;-78
2022/11/08 02:22:33;;;;;;;11.90;2.42;;;;;;;;;;5070619;28;20075;-78
2022/11/08 02:24:59;;;;;;;8.88;2.38;;;;;;;;;;5071463;28;20044;-77
2022/11/08 02:27:25;;;;;;;12.55;2.28;;;;;;;;;;5072486;28;20037;-77
2022/11/08 02:29:52;;;;;;;12.50;2.55;;;;;;;;;;5061618;28;20119;-78
2022/11/08 02:32:19;;;;;;;11.27;2.55;;;;;;;;;;5053977;28;20060;-77
2022/11/08 02:34:55;;;;;;;10.73;2.13;;;;;;;;;;5059830;28;20044;-73
2022/11/08 02:37:22;;;;;;;7.72;2.30;;;;;;;;;;5065148;28;20029;-78
2022/11/08 02:39:48;;;;;;;7.18;3.00;;;;;;;;;;5052935;28;20037;-77
2022/11/08 02:42:17;;;;;;;10.68;2.80;;;;;;;;;;5060591;28;20086;-78
2022/11/08 02:44:43;;;;;;;13.38;2.72;;;;;;;;;;5056443;28;20056;-77
2022/11/08 02:47:09;;;;;;;12.70;3.28;;;;;;;;;;5061427;28;20151;-78
2022/11/08 02:49:35;;;;;;;14.18;2.92;;;;;;;;;;5066786;28;20047;-78
2022/11/08 02:52:01;;;;;;;10.32;2.97;;;;;;;;;;5072498;28;20089;-77
2022/11/08 02:54:27;;;;;;;10.70;3.10;;;;;;;;;;5048654;28;20044;-78
2022/11/08 02:56:53;;;;;;;14.50;2.70;;;;;;;;;;5045608;28;20036;-73
2022/11/08 02:59:20;;;;;;;9.85;2.67;;;;;;;;;;5062659;28;20056;-74
2022/11/08 03:01:46;;;;;;;11.85;3.40;;;;;;;;;;5060949;28;20048;-77
2022/11/08 03:04:12;;;;;;;12.88;2.65;;;;;;;;;;5062687;28;20044;-74
2022/11/08 03:06:38;;;;;;;12.95;3.00;;;;;;;;;;5045037;28;20038;-73
2022/11/08 03:09:04;;;;;;;10.93;2.90;;;;;;;;;;5059937;28;20558;-74
2022/11/08 03:11:30;;;;;;;8.95;2.92;;;;;;;;;;5066710;28;20064;-74
2022/11/08 03:13:56;;;;;;;11.45;3.17;;;;;;;;;;5054143;28;20048;-74
2022/11/08 03:16:22;;;;;;;9.05;2.90;;;;;;;;;;5060259;28;20046;-73
2022/11/08 03:18:48;;;;;;;8.52;2.90;;;;;;;;;;5047889;28;20437;-73
2022/11/08 03:21:14;;;;;;;10.77;2.83;;;;;;;;;;5053291;28;20033;-73
2022/11/08 03:23:40;;;;;;;10.20;2.85;;;;;;;;;;5054049;28;20036;-78
2022/11/08 03:26:06;;;;;;;9.27;2.78;;;;;;;;;;5045667;28;20044;-77
2022/11/08 03:28:32;;;;;;;10.88;2.83;;;;;;;;;;5057718;28;20041;-78
2022/11/08 03:30:58;;;;;;;10.40;2.95;;;;;;;;;;5068874;28;20037;-78
2022/11/08 03:33:25;;;;;;;11.77;2.90;;;;;;;;;;5064472;28;20508;-77
2022/11/08 03:35:51;;;;;;;10.98;3.13;;;;;;;;;;5057717;28;20029;-78
2022/11/08 03:38:17;;;;;;;10.70;2.80;;;;;;;;;;5051076;28;20044;-77
2022/11/08 03:40:44;;;;;;;11.45;2.65;;;;;;;;;;5051285;28;20112;-73
2022/11/08 03:43:10;;;;;;;10.45;2.88;;;;;;;;;;5051073;28;20076;-73
2022/11/08 03:45:37;;;;;;;13.35;3.28;;;;;;;;;;5033989;28;20044;-73
2022/11/08 03:48:03;;;;;;;8.75;2.60;;;;;;;;;;5034382;28;20044;-73
2022/11/08 03:50:29;;;;;;;11.25;3.15;;;;;;;;;;5051013;28;20045;-73
2022/11/08 03:52:56;;;;;;;11.95;3.17;;;;;;;;;;5050922;28;20037;-74
2022/11/08 03:55:23;;;;;;;10.80;3.08;;;;;;;;;;5050839;28;20094;-77
2022/11/08 03:57:50;;;;;;;12.38;2.90;;;;;;;;;;5050387;28;20049;-77
2022/11/08 04:00:18;;;;;;;12.20;3.40;;;;;;;;;;5034512;28;20037;-74
2022/11/08 04:02:44;;;;;;;12.20;3.33;;;;;;;;;;5050995;28;20087;-73
2022/11/08 04:05:11;;;;;;;10.80;3.20;;;;;;;;;;5050362;28;20098;-78
2022/11/08 04:07:37;;;;;;;13.45;2.92;;;;;;;;;;5050792;28;20045;-76
2022/11/08 04:10:07;;;;;;;7.57;2.70;;;;;;;;;;5050470;28;20040;-76
2022/11/08 04:15:20;;;;;;;9.73;3.17;;;;;;;;;;5050627;28;20033;-77
2022/11/08 04:23:18;;;;;;;8.48;3.28;;;;;;;;;;5050221;28;20128;-73
2022/11/08 04:25:44;;;;;;;11.95;3.83;;;;;;;;;;5052095;28;20045;-73
2022/11/08 04:28:11;;;;;;;10.50;3.47;;;;;;;;;;5034262;28;20532;-73
2022/11/08 04:30:37;;;;;;;11.40;3.70;;;;;;;;;;5050345;28;20066;-74
2022/11/08 04:33:04;;;;;;;10.40;3.53;;;;;;;;;;5050660;28;20103;-73
2022/11/08 04:35:31;;;;;;;9.77;3.47;;;;;;;;;;5049900;28;20131;-74
2022/11/08 04:37:59;;;;;;;13.30;3.50;;;;;;;;;;5050621;28;20041;-73
2022/11/08 04:40:25;;;;;;;9.95;3.30;;;;;;;;;;5050126;28;20119;-73
2022/11/08 04:42:51;;;;;;;12.23;3.33;;;;;;;;;;5034137;28;20041;-77
2022/11/08 04:45:17;;;;;;;12.65;3.40;;;;;;;;;;5050435;28;20053;-76
2022/11/08 04:47:46;;;;;;;12.88;3.75;;;;;;;;;;5050125;28;20049;-77
2022/11/08 04:50:13;;;;;;;11.82;3.70;;;;;;;;;;5034085;28;20556;-77
2022/11/08 04:52:39;;;;;;;9.77;3.63;;;;;;;;;;5050174;28;20418;-77
2022/11/08 04:55:06;;;;;;;7.28;2.67;;;;;;;;;;5049992;28;20528;-74
2022/11/08 04:57:32;;;;;;;11.57;3.58;;;;;;;;;;5050033;28;20072;-77
2022/11/08 04:59:58;;;;;;;12.43;3.40;;;;;;;;;;5033552;28;20049;-77
2022/11/08 05:02:24;;;;;;;8.85;3.10;;;;;;;;;;5047061;28;20080;-74
2022/11/08 05:04:50;;;;;;;9.50;2.92;;;;;;;;;;5033294;28;20524;-73
2022/11/08 05:07:16;;;;;;;7.35;2.97;;;;;;;;;;5050136;28;20041;-74
2022/11/08 05:09:42;;;;;;;10.30;3.20;;;;;;;;;;5049703;28;20072;-73
2022/11/08 05:12:08;;;;;;;10.77;3.22;;;;;;;;;;5033275;28;20052;-73
2022/11/08 05:14:34;;;;;;;11.38;3.55;;;;;;;;;;5033401;28;20064;-76
2022/11/08 05:17:00;;;;;;;10.55;3.47;;;;;;;;;;5055043;28;20037;-77
2022/11/08 05:24:55;;;;;;;15.55;4.07;;;;;;;;;;5040157;28;20084;-73
2022/11/08 05:27:22;;;;;;;11.50;3.22;;;;;;;;;;5053884;28;20075;-73
2022/11/08 05:29:48;;;;;;;11.70;3.67;;;;;;;;;;5036534;28;20087;-74
2022/11/08 05:32:14;;;;;;;9.48;2.90;;;;;;;;;;5037633;28;20052;-73
2022/11/08 05:34:40;;;;;;;7.78;3.72;;;;;;;;;;5053761;28;20029;-73
2022/11/08 05:37:06;;;;;;;9.15;3.00;;;;;;;;;;5037156;28;20086;-74
2022/11/08 05:39:32;;;;;;;10.80;3.38;;;;;;;;;;5019090;28;20042;-73
2022/11/08 05:41:58;;;;;;;10.27;3.28;;;;;;;;;;5053698;28;20049;-78
2022/11/08 05:44:24;;;;;;;10.48;2.92;;;;;;;;;;5053615;28;20051;-76
2022/11/08 05:46:50;;;;;;;10.98;3.50;;;;;;;;;;5053274;28;20079;-74
2022/11/08 05:49:16;;;;;;;7.20;2.88;;;;;;;;;;5053442;28;20043;-76
2022/11/08 05:51:42;;;;;;;8.75;2.90;;;;;;;;;;5053543;28;20047;-77
2022/11/08 05:54:08;;;;;;;8.57;2.70;;;;;;;;;;5053939;28;20037;-77
2022/11/08 05:56:34;;;;;;;12.07;3.00;;;;;;;;;;5052759;28;20124;-77
2022/11/08 05:59:00;;;;;;;9.23;2.90;;;;;;;;;;5053082;28;20088;-74
2022/11/08 06:01:26;;;;;;;8.15;2.55;;;;;;;;;;5053260;28;20087;-74
2022/11/08 06:03:53;;;;;;;9.15;2.70;;;;;;;;;;5053058;28;20083;-73
2022/11/08 06:06:19;;;;;;;8.43;2.83;;;;;;;;;;5053516;28;20504;-77
2022/11/08 06:08:46;;;;;;;8.38;2.97;;;;;;;;;;5053704;28;20032;-77
2022/11/08 06:11:13;;;;;;;8.77;2.60;;;;;;;;;;5053379;28;20047;-77
2022/11/08 06:13:39;;;;;;;6.63;2.55;;;;;;;;;;5052616;28;20041;-77
2022/11/08 06:16:07;;;;;;;8.63;2.80;;;;;;;;;;5036725;28;20048;-74
2022/11/08 06:18:33;;;;;;;8.13;2.50;;;;;;;;;;5053452;28;20041;-74
2022/11/08 06:21:03;;;;;;;8.77;2.88;;;;;;;;;;5052963;28;20041;-74
2022/11/08 06:23:30;;;;;;;6.53;2.70;;;;;;;;;;5052280;28;20088;-74
2022/11/08 06:25:56;;;;;;;7.65;2.30;;;;;;;;;;5052748;28;20048;-74
2022/11/08 06:28:22;;;;;;;9.23;2.90;;;;;;;;;;5052019;28;20045;-73
2022/11/08 06:30:48;;;;;;;7.97;3.10;;;;;;;;;;5052845;28;20404;-74
2022/11/08 06:33:14;;;;;;;5.88;2.40;;;;;;;;;;5052374;28;20037;-74
2022/11/08 06:35:40;;;;;;;8.68;2.92;;;;;;;;;;5052130;28;20033;-75
2022/11/08 06:38:07;;;;;;;7.88;2.50;;;;;;;;;;5053049;28;20041;-77
2022/11/08 06:40:33;;;;;;;7.07;2.38;;;;;;;;;;5035938;28;20060;-76
2022/11/08 06:42:59;;;;;;;9.60;3.15;;;;;;;;;;5052099;28;20072;-74
2022/11/08 06:45:26;;;;;;;9.13;2.42;;;;;;;;;;5052367;28;20056;-74
2022/11/08 06:47:58;;;;;;;7.82;2.40;;;;;;;;;;5051968;28;20124;-74
2022/11/08 06:50:25;;;;;;;8.50;2.15;;;;;;;;;;5036272;28;20494;-74
2022/11/08 06:52:58;;;;;;;9.60;2.45;;;;;;;;;;5052450;28;20044;-74
2022/11/08 06:55:24;;;;;;;7.78;2.63;;;;;;;;;;5052779;28;20103;-74
2022/11/08 06:57:50;;;;;;;6.70;2.20;;;;;;;;;;5035516;28;20041;-74
2022/11/08 07:00:17;;;;;;;5.90;2.38;;;;;;;;;;5052425;28;20551;-73
2022/11/08 07:02:43;;;;;;;7.53;2.25;;;;;;;;;;5052096;28;20041;-74
2022/11/08 07:05:10;;;;;;;6.13;2.38;;;;;;;;;;5035637;28;20037;-73
2022/11/08 07:07:36;;;;;;;7.15;2.30;;;;;;;;;;5035922;28;20053;-73
2022/11/08 07:10:02;;;;;;;9.70;2.63;;;;;;;;;;5052093;28;20493;-78
2022/11/08 07:12:28;;;;;;;7.82;2.47;;;;;;;;;;5051662;28;20037;-78
2022/11/08 07:14:54;;;;;;;5.53;2.25;;;;;;;;;;5051506;28;20033;-78
2022/11/08 07:17:20;;;;;;;8.07;2.63;;;;;;;;;;5085533;28;20052;-78
2022/11/08 07:19:46;;;;;;;7.15;2.50;;;;;;;;;;5035085;28;20128;-75
2022/11/08 07:22:13;;;;;;;6.88;2.40;;;;;;;;;;5051815;28;20036;-76
2022/11/08 07:24:39;;;;;;;8.93;2.75;;;;;;;;;;5035448;28;20128;-78
2022/11/08 07:27:05;;;;;;;7.43;3.10;;;;;;;;;;5051527;28;20041;-77
2022/11/08 07:29:31;;;;;;;7.65;3.00;;;;;;;;;;5051880;28;20497;-79
2022/11/08 07:31:57;;;;;;;6.88;2.88;;;;;;;;;;5051652;28;20037;-78
2022/11/08 07:34:23;;;;;;;6.68;2.70;;;;;;;;;;5035637;28;20528;-78
2022/11/08 07:36:49;;;;;;;7.05;2.83;;;;;;;;;;5031598;28;20127;-77
2022/11/08 07:39:15;;;;;;;5.72;2.75;;;;;;;;;;5051465;28;20036;-77
2022/11/08 07:41:41;;;;;;;6.40;2.80;;;;;;;;;;5048505;28;20095;-78
2022/11/08 07:44:07;;;;;;;7.63;2.63;;;;;;;;;;5050325;28;20037;-79
2022/11/08 07:46:33;;;;;;;9.52;3.28;;;;;;;;;;5051605;28;20045;-77
2022/11/08 07:48:59;;;;;;;5.57;2.58;;;;;;;;;;5051256;28;20033;-80
2022/11/08 07:51:25;;;;;;;8.85;3.20;;;;;;;;;;5051232;28;20080;-78
2022/11/08 07:53:51;;;;;;;5.93;2.72;;;;;;;;;;5051159;28;20049;-78
2022/11/08 07:56:17;;;;;;;6.95;2.70;;;;;;;;;;5035182;28;20501;-78
2022/11/08 07:58:44;;;;;;;7.53;3.22;;;;;;;;;;5052429;28;20057;-78
2022/11/08 08:01:10;;;;;;;6.20;2.25;;;;;;;;;;5051172;28;20375;-79
2022/11/08 08:03:36;;;;;;;6.85;2.55;;;;;;;;;;5051043;28;20091;-79
2022/11/08 08:06:02;;;;;;;6.20;2.33;;;;;;;;;;5034599;28;20045;-78
2022/11/08 08:08:29;;;;;;;4.82;2.47;;;;;;;;;;5046815;28;20041;-79
2022/11/08 08:10:59;;;;;;;6.43;2.70;;;;;;;;;;5044834;28;20401;-77
2022/11/08 08:13:25;;;;;;;7.45;2.47;;;;;;;;;;5051137;28;20090;-77
2022/11/08 08:15:51;;;;;;;5.25;2.03;;;;;;;;;;5051141;28;20067;-78
2022/11/08 08:18:19;;;;;;;6.15;2.50;;;;;;;;;;5034177;28;20029;-77
2022/11/08 08:20:46;;;;;;;5.72;2.13;;;;;;;;;;5035364;28;20041;-77
2022/11/08 08:23:12;;;;;;;5.47;2.38;;;;;;;;;;5049309;28;20045;-78
2022/11/08 08:25:38;;;;;;;5.90;2.00;;;;;;;;;;5051369;28;20120;-78
2022/11/08 08:28:05;;;;;;;5.80;2.00;;;;;;;;;;5050039;28;20049;-77
2022/11/08 08:30:33;;;;;;;6.93;2.70;;;;;;;;;;5034765;28;20567;-78
2022/11/08 08:33:03;;;;;;;5.85;2.20;;;;;;;;;;5033928;28;20056;-79
2022/11/08 08:35:29;;;;;;;8.15;2.47;;;;;;;;;;5045270;28;20426;-76
2022/11/08 08:37:59;;;;;;;6.93;2.45;;;;;;;;;;5050570;28;20041;-78
2022/11/08 08:40:26;;;;;;;5.70;2.42;;;;;;;;;;5051362;28;20052;-79
2022/11/08 08:42:52;;;;;;;8.00;2.47;;;;;;;;;;5034156;28;20553;-76
2022/11/08 08:45:18;;;;;;;5.30;2.15;;;;;;;;;;5034096;28;20044;-79
2022/11/08 08:47:44;;;;;;;6.68;2.20;;;;;;;;;;5050283;28;20405;-73
2022/11/08 08:50:10;;;;;;;4.25;2.28;;;;;;;;;;5048285;28;20486;-74
2022/11/08 08:52:36;;;;;;;8.82;2.90;;;;;;;;;;5050509;28;20067;-74
2022/11/08 08:55:02;;;;;;;4.65;2.20;;;;;;;;;;5033675;28;20045;-79
2022/11/08 08:57:28;;;;;;;5.13;2.30;;;;;;;;;;5051066;28;20445;-74
2022/11/08 08:59:54;;;;;;;5.15;2.30;;;;;;;;;;5083808;28;20131;-81
2022/11/08 09:02:20;;;;;;;5.72;2.30;;;;;;;;;;5034046;28;20063;-79
2022/11/08 09:04:46;;;;;;;5.05;2.20;;;;;;;;;;5034783;28;20044;-74
2022/11/08 09:07:12;;;;;;;5.25;2.10;;;;;;;;;;5044098;28;20550;-75
2022/11/08 09:09:39;;;;;;;4.47;2.17;;;;;;;;;;5037134;28;20049;-79
2022/11/08 09:12:05;;;;;;;6.07;2.20;;;;;;;;;;5050659;28;20407;-78
2022/11/08 09:14:31;;;;;;;5.05;2.50;;;;;;;;;;5034549;28;20037;-78
2022/11/08 09:16:57;;;;;;;6.05;2.08;;;;;;;;;;5067250;28;20489;-74
2022/11/08 09:19:23;;;;;;;5.82;2.47;;;;;;;;;;5063965;28;20036;-74
2022/11/08 09:21:49;;;;;;;5.95;2.40;;;;;;;;;;5050786;28;20504;-74
2022/11/08 09:24:16;;;;;;;4.75;2.28;;;;;;;;;;5066314;28;20048;-75
2022/11/08 09:26:42;;;;;;;6.13;2.17;;;;;;;;;;5049524;28;20045;-75
2022/11/08 09:29:08;;;;;;;4.75;2.22;;;;;;;;;;5049658;28;20500;-76
2022/11/08 09:31:34;;;;;;;6.43;2.58;;;;;;;;;;5033242;28;20584;-74
2022/11/08 09:34:00;;;;;;;6.13;2.05;;;;;;;;;;5049485;28;20045;-74
2022/11/08 09:36:26;;;;;;;7.68;2.17;;;;;;;;;;5049634;28;20032;-73
2022/11/08 09:38:52;;;;;;;6.95;1.90;;;;;;;;;;5033519;28;20041;-74
2022/11/08 09:41:31;;;;;;;6.13;2.20;;;;;;;;;;5033298;28;20037;-74
2022/11/08 09:44:05;;;;;;;5.88;1.92;;;;;;;;;;5047306;28;20045;-74
2022/11/08 09:46:43;;;;;;;4.85;2.33;;;;;;;;;;5046680;28;20045;-74
2022/11/08 09:49:14;;;;;;;7.55;2.10;;;;;;;;;;5027099;28;20045;-74
2022/11/08 09:51:41;;;;;;;6.60;2.10;;;;;;;;;;5038911;28;20051;-75
2022/11/08 09:54:12;;;;;;;8.32;2.50;;;;;;;;;;5045958;28;20159;-75
2022/11/08 09:56:39;;;;;;;4.90;2.13;;;;;;;;;;5050032;28;20456;-75
2022/11/08 09:59:13;;;;;;;5.07;2.00;;;;;;;;;;5048801;28;20064;-74
2022/11/08 10:01:39;;;;;;;5.95;1.90;;;;;;;;;;5049132;28;20048;-74
2022/11/08 10:04:08;;;;;;;4.57;2.00;;;;;;;;;;5053036;28;20390;-75
2022/11/08 10:06:42;;;;;;;3.92;2.03;;;;;;;;;;5053629;28;20390;-75
2022/11/08 10:09:14;;;;;;;4.82;2.10;;;;;;;;;;5053255;28;20127;-73
2022/11/08 10:11:45;;;;;;;4.10;2.00;;;;;;;;;;5054210;28;20041;-74
2022/11/08 10:14:24;;;;;;;5.32;1.92;;;;;;;;;;5053455;28;20148;-76
2022/11/08 10:16:53;;;;;;;7.05;2.05;;;;;;;;;;5054949;28;20036;-74
2022/11/08 10:19:33;;;;;;;4.07;1.75;;;;;;;;;;5035846;28;20048;-76
2022/11/08 10:22:05;;;;;;;7.28;2.08;;;;;;;;;;5051281;28;20487;-77
2022/11/08 10:24:39;;;;;;;4.93;2.00;;;;;;;;;;5053333;28;20128;-77
2022/11/08 10:27:13;;;;;;;6.65;2.00;;;;;;;;;;5053262;28;20045;-78
2022/11/08 10:29:45;;;;;;;4.05;2.30;;;;;;;;;;5053317;28;20115;-75
2022/11/08 10:32:18;;;;;;;5.50;1.80;;;;;;;;;;5052631;28;20120;-75
2022/11/08 10:35:07;;;;;;;5.30;2.00;;;;;;;;;;5053299;28;20037;-76
2022/11/08 10:37:33;;;;;;;7.28;2.17;;;;;;;;;;5056385;28;20048;-76
2022/11/08 10:40:04;;;;;;;6.55;2.00;;;;;;;;;;5053308;28;20482;-72
2022/11/08 10:42:36;;;;;;;6.03;1.98;;;;;;;;;;5055045;28;20037;-74
2022/11/08 10:45:03;;;;;;;5.90;2.20;;;;;;;;;;5063421;28;20066;-77
2022/11/08 10:47:29;;;;;;;4.15;1.92;;;;;;;;;;5056705;28;20059;-76
2022/11/08 10:49:56;;;;;;;4.75;2.17;;;;;;;;;;5053254;28;20083;-76
2022/11/08 10:52:34;;;;;;;6.40;2.20;;;;;;;;;;5049239;28;20462;-75
2022/11/08 10:55:00;;;;;;;6.50;1.80;;;;;;;;;;5052496;28;20037;-76
2022/11/08 10:57:32;;;;;;;3.75;2.03;;;;;;;;;;5052178;28;20124;-76
2022/11/08 11:00:17;;;;;;;4.55;1.98;;;;;;;;;;5052159;28;20452;-74
2022/11/08 11:02:44;;;;;;;4.72;2.00;;;;;;;;;;5052133;28;20040;-77
2022/11/08 11:05:17;;;;;;;5.90;1.90;;;;;;;;;;5035593;28;20041;-74
2022/11/08 11:08:01;;;;;;;7.03;2.17;;;;;;;;;;5052955;28;20110;-75
2022/11/08 11:10:35;;;;;;;4.70;1.85;;;;;;;;;;5035999;28;20048;-77
2022/11/08 11:13:03;;;;;;;3.63;1.52;;;;;;;;;;5052194;28;20151;-78
2022/11/08 11:15:32;;;;;;;5.25;1.98;;;;;;;;;;5054047;28;20044;-77
2022/11/08 11:17:58;;;;;;;5.40;2.25;;;;;;;;;;5035680;28;20111;-79
2022/11/08 11:20:25;;;;;;;5.45;2.03;;;;;;;;;;5052740;28;20090;-79
2022/11/08 11:22:52;;;;;;;4.10;1.80;;;;;;;;;;5052802;28;20045;-79
2022/11/08 11:25:19;;;;;;;5.22;2.33;;;;;;;;;;5052228;28;20029;-76
2022/11/08 11:27:53;;;;;;;6.05;1.70;;;;;;;;;;5050431;28;20037;-77
2022/11/08 11:30:26;;;;;;;4.95;1.83;;;;;;;;;;5035058;28;20049;-77
2022/11/08 11:33:16;;;;;;;4.95;1.77;;;;;;;;;;5052318;28;20095;-76
2022/11/08 11:35:45;;;;;;;4.50;1.70;;;;;;;;;;5040086;28;20037;-79
2022/11/08 11:38:17;;;;;;;5.13;2.15;;;;;;;;;;5034875;28;20041;-79
2022/11/08 11:40:45;;;;;;;4.75;1.88;;;;;;;;;;5051370;28;20041;-78
2022/11/08 11:43:27;;;;;;;3.90;1.63;;;;;;;;;;5086137;28;20045;-78
2022/11/08 11:46:05;;;;;;;7.95;2.03;;;;;;;;;;5067666;28;20037;-77
2022/11/08 11:48:35;;;;;;;4.43;1.67;;;;;;;;;;5054733;28;20075;-79
2022/11/08 11:51:01;;;;;;;3.85;1.75;;;;;;;;;;5039925;28;20051;-78
2022/11/08 11:53:29;;;;;;;3.38;1.70;;;;;;;;;;5036184;28;20099;-78
2022/11/08 11:56:04;;;;;;;3.35;1.70;;;;;;;;;;5054563;28;20117;-78
2022/11/08 11:58:30;;;;;;;5.15;1.90;;;;;;;;;;5045747;28;20481;-78
2022/11/08 12:01:09;;;;;;;6.78;1.60;;;;;;;;;;5050903;28;20045;-78
2022/11/08 12:03:50;;;;;;;8.43;1.70;;;;;;;;;;5051212;28;20114;-74
2022/11/08 12:06:16;;;;;;;6.32;1.65;;;;;;;;;;5030452;28;20050;-77
2022/11/08 12:08:50;;;;;;;3.83;1.30;;;;;;;;;;5034338;28;20443;-77
2022/11/08 12:11:35;;;;;;;3.63;1.52;;;;;;;;;;5050557;28;20048;-78
2022/11/08 12:14:01;;;;;;;3.17;1.40;;;;;;;;;;5051236;28;20513;-77
2022/11/08 12:16:34;;;;;;;3.08;1.33;;;;;;;;;;5050945;28;20056;-79
2022/11/08 12:19:22;;;;;;;6.15;1.80;;;;;;;;;;5050430;28;20043;-76
2022/11/08 12:21:48;;;;;;;4.05;1.40;;;;;;;;;;5051008;28;20517;-75
2022/11/08 12:24:22;;;;;;;4.50;1.30;;;;;;;;;;5043287;28;20493;-72
2022/11/08 12:27:03;;;;;;;4.15;1.70;;;;;;;;;;5034646;28;20041;-74
2022/11/08 12:29:32;;;;;;;5.80;1.50;;;;;;;;;;5033821;28;20392;-74
2022/11/08 12:32:05;;;;;;;6.97;1.60;;;;;;;;;;5055290;28;20036;-75
2022/11/08 12:34:56;;;;;;;3.05;1.40;;;;;;;;;;5050681;28;20462;-78
2022/11/08 12:37:40;;;;;;;4.57;1.58;;;;;;;;;;5033684;28;20123;-77
2022/11/08 12:40:25;;;;;;;7.15;1.75;;;;;;;;;;5048757;28;20044;-77
2022/11/08 12:43:05;;;;;;;4.43;1.70;;;;;;;;;;5033150;28;20032;-75
2022/11/08 12:45:31;;;;;;;3.25;1.38;;;;;;;;;;5050594;28;20040;-75
2022/11/08 12:47:57;;;;;;;3.97;1.60;;;;;;;;;;5050581;28;20049;-74
2022/11/08 12:50:39;;;;;;;7.05;1.60;;;;;;;;;;5084240;28;20045;-74
2022/11/08 12:53:05;;;;;;;4.78;1.52;;;;;;;;;;5044819;28;20123;-76
2022/11/08 12:55:35;;;;;;;5.13;1.67;;;;;;;;;;5050799;28;20110;-77
2022/11/08 12:58:05;;;;;;;5.93;1.60;;;;;;;;;;5050206;28;20132;-76
2022/11/08 13:00:32;;;;;;;3.53;1.42;;;;;;;;;;5033495;28;20087;-77
2022/11/08 13:03:19;;;;;;;3.42;1.40;;;;;;;;;;5049555;28;20037;-78
2022/11/08 13:05:47;;;;;;;4.97;1.60;;;;;;;;;;5050407;28;20045;-76
2022/11/08 13:08:21;;;;;;;4.75;1.50;;;;;;;;;;5033918;28;20052;-76
2022/11/08 13:10:52;;;;;;;6.63;1.40;;;;;;;;;;5085076;28;20044;-78
2022/11/08 13:13:37;;;;;;;4.82;1.70;;;;;;;;;;5050971;28;20052;-77
2022/11/08 13:16:06;;;;;;;4.57;1.85;;;;;;;;;;5050987;28;20067;-78
2022/11/08 13:18:33;;;;;;;3.60;1.73;;;;;;;;;;5036367;28;20482;-80
2022/11/08 13:21:00;;;;;;;5.30;1.73;;;;;;;;;;5030845;28;20044;-79
2022/11/08 13:23:32;;;;;;;6.47;1.95;;;;;;;;;;5050333;28;20037;-77
2022/11/08 13:26:11;;;;;;;5.60;1.50;;;;;;;;;;5034755;28;20045;-78
2022/11/08 13:28:38;;;;;;;6.03;1.98;;;;;;;;;;5049958;28;20043;-76
2022/11/08 13:31:27;;;;;;;5.60;1.55;;;;;;;;;;5050465;28;20041;-78
2022/11/08 13:34:09;;;;;;;4.82;1.70;;;;;;;;;;5051203;28;20090;-78
2022/11/08 13:36:38;;;;;;;5.53;1.60;;;;;;;;;;5051654;28;20512;-78
2022/11/08 13:39:13;;;;;;;5.22;1.52;;;;;;;;;;5042637;28;20449;-77
2022/11/08 13:42:12;;;;;;;4.45;1.95;;;;;;;;;;5038023;28;20047;-78
2022/11/08 13:44:58;;;;;;;4.95;1.75;;;;;;;;;;5010518;28;20080;-76
2022/11/08 13:47:33;;;;;;;5.80;1.67;;;;;;;;;;5054613;28;20041;-76
2022/11/08 13:50:18;;;;;;;6.68;2.00;;;;;;;;;;5054247;28;20452;-76
2022/11/08 13:53:01;;;;;;;7.05;1.55;;;;;;;;;;5052801;28;20131;-75
2022/11/08 13:55:42;;;;;;;4.95;1.70;;;;;;;;;;5053657;28;20044;-76
2022/11/08 13:58:27;;;;;;;6.63;1.60;;;;;;;;;;5039337;28;20299;-75
2022/11/08 14:00:53;;;;;;;6.88;1.80;;;;;;;;;;5047016;28;20049;-75
2022/11/08 14:03:32;;;;;;;5.43;1.58;;;;;;;;;;5053361;28;20047;-74
2022/11/08 14:06:18;;;;;;;4.72;1.70;;;;;;;;;;5053847;28;20132;-74
2022/11/08 14:08:44;;;;;;;;;;;;;;;;;;5043082;28;20049;-74
2022/11/08 14:11:10;;;;;;;5.95;1.98;;;;;;;;;;5070518;28;20030;-74
2022/11/08 14:13:44;;;;;;;5.45;1.90;;;;;;;;;;5046902;28;20045;-74
2022/11/08 14:16:20;;;;;;;7.78;2.88;;;;;;;;;;5046825;28;20545;-74
2022/11/08 14:18:46;;;;;;;7.78;2.00;;;;;;;;;;5036569;28;20044;-74
2022/11/08 14:21:19;;;;;;;5.25;1.58;;;;;;;;;;5053551;28;20068;-74
2022/11/08 14:23:47;;;;;;;4.28;1.58;;;;;;;;;;5052753;28;20044;-74
2022/11/08 14:26:16;;;;;;;5.95;1.50;;;;;;;;;;5054528;28;20045;-74
2022/11/08 14:28:44;;;;;;;6.18;1.65;;;;;;;;;;5036031;28;20044;-77
2022/11/08 14:31:30;;;;;;;5.95;1.92;;;;;;;;;;5036495;28;20041;-73
2022/11/08 14:33:56;;;;;;;4.93;1.80;;;;;;;;;;5052039;28;20091;-74
2022/11/08 14:36:23;;;;;;;5.65;1.73;;;;;;;;;;5036732;28;20512;-74
2022/11/08 14:38:52;;;;;;;4.88;1.90;;;;;;;;;;5035606;28;20486;-76
2022/11/08 14:41:25;;;;;;;6.15;1.60;;;;;;;;;;5053145;28;20037;-76
2022/11/08 14:43:52;;;;;;;5.97;1.60;;;;;;;;;;5083303;28;20086;-74
2022/11/08 14:46:27;;;;;;;5.18;1.55;;;;;;;;;;5082880;28;20041;-73
2022/11/08 14:48:55;;;;;;;3.75;1.60;;;;;;;;;;5049384;28;20055;-74
2022/11/08 14:51:22;;;;;;;3.80;1.60;;;;;;;;;;5035419;28;20047;-74
2022/11/08 14:53:49;;;;;;;4.82;1.60;;;;;;;;;;5024088;28;20087;-73
2022/11/08 14:56:23;;;;;;;4.85;1.52;;;;;;;;;;5085083;28;20393;-73
2022/11/08 14:58:50;;;;;;;5.80;1.60;;;;;;;;;;5051421;28;20059;-73
2022/11/08 15:01:19;;;;;;;5.65;1.60;;;;;;;;;;5036243;28;20037;-73
2022/11/08 15:03:56;;;;;;;4.22;1.67;;;;;;;;;;5052467;28;20049;-73
2022/11/08 15:06:29;;;;;;;6.20;1.83;;;;;;;;;;5052222;28;20076;-73
2022/11/08 15:08:55;;;;;;;6.30;1.88;;;;;;;;;;5034706;28;20090;-73
2022/11/08 15:11:30;;;;;;;4.45;1.80;;;;;;;;;;5051381;28;20136;-74
2022/11/08 15:14:01;;;;;;;5.60;1.80;;;;;;;;;;5022005;28;20041;-73